Time;durP1;ratioP1;P1;durP2;ratioP2;P2;SDS_P1;SDS_P2;PMS_P1;PMS_P2;Temp;Humidity;BMP_temperature;BMP_pressure;BME280_temperature;BME280_humidity;BME280_pressure;Samples;Min_cycle;Max_cycle;Signal;HPM_P1;HPM_P2
2022/12/13 00:00:13;;;;;;;1.70;1.60;;;;;;;;;;6250754;28;20302;-79
2022/12/13 00:03:19;;;;;;;1.27;1.27;;;;;;;;;;6266711;28;20300;-79
2022/12/13 00:06:25;;;;;;;1.80;1.37;;;;;;;;;;6266548;28;20302;-79
2022/12/13 00:09:30;;;;;;;1.30;1.30;;;;;;;;;;6266898;28;20295;-80
2022/12/13 00:12:35;;;;;;;1.60;1.50;;;;;;;;;;6284778;28;20273;-79
2022/12/13 00:15:40;;;;;;;1.30;1.30;;;;;;;;;;6284620;28;20302;-79
2022/12/13 00:18:50;;;;;;;1.77;1.63;;;;;;;;;;6284729;28;20294;-79
2022/12/13 00:21:56;;;;;;;3.70;1.43;;;;;;;;;;6267530;28;20271;-79
2022/12/13 00:25:01;;;;;;;1.80;1.20;;;;;;;;;;6268519;28;20317;-79
2022/12/13 00:28:07;;;;;;;1.80;1.70;;;;;;;;;;6266555;28;20299;-79
2022/12/13 00:31:12;;;;;;;1.53;1.53;;;;;;;;;;6266896;28;20271;-79
2022/12/13 00:34:41;;;;;;;4.83;1.20;;;;;;;;;;6253522;28;20488;-79
2022/12/13 00:37:46;;;;;;;2.77;1.50;;;;;;;;;;6283558;28;20274;-79
2022/12/13 00:40:52;;;;;;;1.20;1.20;;;;;;;;;;6285057;28;20270;-78
2022/12/13 00:43:58;;;;;;;1.50;1.50;;;;;;;;;;6283902;28;20295;-78
2022/12/13 00:47:04;;;;;;;1.63;1.53;;;;;;;;;;6288019;28;20277;-78
2022/12/13 00:50:21;;;;;;;1.87;1.70;;;;;;;;;;6288794;28;20477;-79
2022/12/13 00:53:41;;;;;;;1.57;1.50;;;;;;;;;;6289439;28;20293;-79
2022/12/13 00:56:46;;;;;;;2.47;1.60;;;;;;;;;;6271311;28;20298;-79
2022/12/13 00:59:51;;;;;;;1.60;1.60;;;;;;;;;;6287566;28;20302;-79
2022/12/13 01:02:58;;;;;;;1.90;1.80;;;;;;;;;;6288899;28;20278;-79
2022/12/13 01:06:10;;;;;;;1.50;1.40;;;;;;;;;;6271659;28;20309;-79
2022/12/13 01:09:22;;;;;;;5.30;1.50;;;;;;;;;;6270834;28;20307;-79
2022/12/13 01:12:27;;;;;;;6.47;1.40;;;;;;;;;;6258466;28;20268;-79
2022/12/13 01:15:32;;;;;;;1.57;1.47;;;;;;;;;;6262909;28;20581;-79
2022/12/13 01:18:39;;;;;;;2.10;1.67;;;;;;;;;;6264336;28;20291;-79
2022/12/13 01:21:45;;;;;;;3.57;1.87;;;;;;;;;;6262971;28;20270;-78
2022/12/13 01:24:51;;;;;;;1.70;1.70;;;;;;;;;;6264246;28;20298;-78
2022/12/13 01:27:58;;;;;;;3.03;1.80;;;;;;;;;;6263104;28;20273;-79
2022/12/13 01:31:07;;;;;;;1.40;1.40;;;;;;;;;;6261923;28;20275;-80
2022/12/13 01:34:12;;;;;;;2.87;1.90;;;;;;;;;;6264083;28;20378;-79
2022/12/13 01:37:20;;;;;;;3.00;2.00;;;;;;;;;;6263487;28;20274;-78
2022/12/13 01:40:30;;;;;;;1.90;1.80;;;;;;;;;;6265030;28;20595;-79
2022/12/13 01:43:54;;;;;;;1.60;1.50;;;;;;;;;;6265972;28;20298;-78
2022/12/13 01:47:00;;;;;;;2.37;1.67;;;;;;;;;;6268198;28;20279;-79
2022/12/13 01:50:09;;;;;;;1.60;1.60;;;;;;;;;;6262864;28;20321;-78
2022/12/13 01:53:21;;;;;;;7.53;1.70;;;;;;;;;;6261951;28;20291;-79
2022/12/13 01:56:29;;;;;;;1.03;1.03;;;;;;;;;;6261175;28;20413;-78
2022/12/13 01:59:35;;;;;;;1.80;1.63;;;;;;;;;;6262891;28;20327;-79
2022/12/13 02:02:40;;;;;;;2.43;1.77;;;;;;;;;;6262373;28;20275;-79
2022/12/13 02:05:53;;;;;;;1.80;1.70;;;;;;;;;;6261136;28;20298;-80
2022/12/13 02:09:07;;;;;;;2.40;1.97;;;;;;;;;;6262404;28;20302;-79
2022/12/13 02:12:13;;;;;;;1.60;1.50;;;;;;;;;;6286081;28;20268;-79
2022/12/13 02:15:19;;;;;;;2.30;1.63;;;;;;;;;;6294405;28;20299;-79
2022/12/13 02:18:41;;;;;;;1.47;1.47;;;;;;;;;;6312464;28;20309;-80
2022/12/13 02:21:51;;;;;;;2.97;1.93;;;;;;;;;;6312384;28;20277;-79
2022/12/13 02:25:08;;;;;;;2.60;2.00;;;;;;;;;;6294175;28;20463;-78
2022/12/13 02:28:23;;;;;;;2.73;1.40;;;;;;;;;;6311839;28;20292;-79
2022/12/13 02:31:43;;;;;;;1.70;1.60;;;;;;;;;;6312217;28;20261;-78
2022/12/13 02:34:52;;;;;;;1.30;1.30;;;;;;;;;;6311933;28;20313;-79
2022/12/13 02:38:02;;;;;;;6.43;1.90;;;;;;;;;;6303384;28;20281;-78
2022/12/13 02:41:11;;;;;;;1.87;1.53;;;;;;;;;;6312425;28;20290;-78
2022/12/13 02:44:19;;;;;;;5.20;1.77;;;;;;;;;;6293872;28;20304;-79
2022/12/13 02:47:34;;;;;;;1.43;1.43;;;;;;;;;;6278567;28;20281;-79
2022/12/13 02:50:40;;;;;;;1.70;1.60;;;;;;;;;;6294022;28;20312;-79
2022/12/13 02:53:46;;;;;;;2.37;2.00;;;;;;;;;;6311741;28;20298;-81
2022/12/13 02:56:55;;;;;;;1.73;1.63;;;;;;;;;;6294464;28;20268;-80
2022/12/13 03:00:04;;;;;;;2.83;1.90;;;;;;;;;;6311688;28;20293;-80
2022/12/13 03:03:23;;;;;;;1.10;1.10;;;;;;;;;;6311685;28;20291;-80
2022/12/13 03:06:36;;;;;;;1.60;1.60;;;;;;;;;;6323769;28;20289;-79
2022/12/13 03:09:49;;;;;;;1.90;1.80;;;;;;;;;;6304593;28;20296;-79
2022/12/13 03:16:32;;;;;;;1.90;1.70;;;;;;;;;;6276751;28;20276;-79
2022/12/13 03:19:39;;;;;;;2.50;2.33;;;;;;;;;;6277361;28;20292;-79
2022/12/13 03:22:45;;;;;;;1.43;1.43;;;;;;;;;;6287064;28;20265;-80
2022/12/13 03:25:52;;;;;;;1.80;1.70;;;;;;;;;;6286919;28;20502;-80
2022/12/13 03:28:57;;;;;;;1.80;1.80;;;;;;;;;;6268071;28;20300;-80
2022/12/13 03:32:05;;;;;;;1.70;1.70;;;;;;;;;;6252000;28;20576;-80
2022/12/13 03:35:17;;;;;;;1.17;1.17;;;;;;;;;;6268301;28;20597;-80
2022/12/13 03:38:26;;;;;;;1.47;1.37;;;;;;;;;;6268795;28;20309;-80
2022/12/13 03:41:32;;;;;;;3.03;1.80;;;;;;;;;;6286190;28;20272;-81
2022/12/13 03:44:37;;;;;;;0.90;0.90;;;;;;;;;;6266529;28;20287;-80
2022/12/13 03:47:44;;;;;;;2.23;2.03;;;;;;;;;;6267281;28;20299;-80
2022/12/13 03:50:51;;;;;;;1.40;1.40;;;;;;;;;;6267253;28;20272;-79
2022/12/13 03:53:59;;;;;;;1.33;1.33;;;;;;;;;;6267863;28;20295;-79
2022/12/13 03:57:06;;;;;;;5.23;1.70;;;;;;;;;;6285845;28;20277;-79
2022/12/13 04:00:15;;;;;;;1.70;1.70;;;;;;;;;;6273735;28;20494;-80
2022/12/13 04:03:21;;;;;;;1.90;1.90;;;;;;;;;;6282121;28;20355;-79
2022/12/13 04:06:28;;;;;;;1.90;1.90;;;;;;;;;;6250617;28;20576;-80
2022/12/13 04:09:37;;;;;;;1.87;1.87;;;;;;;;;;6283638;28;20310;-80
2022/12/13 04:16:06;;;;;;;1.60;1.60;;;;;;;;;;6250590;28;20398;-79
2022/12/13 04:19:12;;;;;;;2.03;1.93;;;;;;;;;;6267153;28;20291;-81
2022/12/13 04:22:29;;;;;;;1.67;1.67;;;;;;;;;;6240963;28;20279;-79
2022/12/13 04:25:35;;;;;;;1.33;1.33;;;;;;;;;;6259613;28;20298;-78
2022/12/13 04:28:40;;;;;;;1.00;1.00;;;;;;;;;;6259912;28;20298;-80
2022/12/13 04:31:45;;;;;;;1.30;1.30;;;;;;;;;;6259984;28;20272;-80
2022/12/13 04:34:50;;;;;;;1.60;1.60;;;;;;;;;;6241913;28;20299;-80
2022/12/13 04:38:09;;;;;;;1.73;1.73;;;;;;;;;;6260450;28;20272;-79
2022/12/13 04:41:18;;;;;;;1.37;1.37;;;;;;;;;;6259238;28;20323;-79
2022/12/13 04:44:23;;;;;;;1.80;1.77;;;;;;;;;;6258142;28;20303;-80
2022/12/13 04:47:33;;;;;;;1.00;1.00;;;;;;;;;;6242295;28;20287;-80
2022/12/13 04:50:46;;;;;;;1.67;1.67;;;;;;;;;;6259374;28;20312;-79
2022/12/13 04:53:52;;;;;;;2.90;1.47;;;;;;;;;;6257919;28;20478;-80
2022/12/13 04:56:57;;;;;;;2.23;1.80;;;;;;;;;;6260044;28;20336;-80
2022/12/13 05:00:07;;;;;;;1.73;1.73;;;;;;;;;;6258948;28;20292;-81
2022/12/13 05:03:13;;;;;;;2.73;1.53;;;;;;;;;;6259262;28;20280;-80
2022/12/13 05:06:19;;;;;;;1.93;1.90;;;;;;;;;;6240529;28;20474;-81
2022/12/13 05:09:32;;;;;;;1.90;1.80;;;;;;;;;;6258367;28;20477;-79
2022/12/13 05:12:37;;;;;;;1.77;1.77;;;;;;;;;;6276188;28;20295;-80
2022/12/13 05:15:44;;;;;;;1.57;1.57;;;;;;;;;;6283806;28;20300;-79
2022/12/13 05:18:55;;;;;;;1.63;1.57;;;;;;;;;;6283340;28;20552;-79
2022/12/13 05:22:01;;;;;;;1.50;1.50;;;;;;;;;;6284582;28;20263;-79
2022/12/13 05:25:12;;;;;;;1.57;1.47;;;;;;;;;;6281482;28;20302;-79
2022/12/13 05:28:26;;;;;;;1.77;1.70;;;;;;;;;;6283326;28;20300;-79
2022/12/13 05:31:33;;;;;;;2.10;1.50;;;;;;;;;;6267667;28;20266;-79
2022/12/13 05:34:40;;;;;;;1.80;1.70;;;;;;;;;;6270859;28;20284;-80
2022/12/13 05:37:46;;;;;;;1.13;1.13;;;;;;;;;;6288485;28;20272;-79
2022/12/13 05:41:02;;;;;;;1.23;1.23;;;;;;;;;;6288373;28;20586;-80
2022/12/13 05:44:12;;;;;;;1.40;1.40;;;;;;;;;;6270601;28;20321;-81
2022/12/13 05:47:17;;;;;;;1.73;1.73;;;;;;;;;;6271136;28;20547;-80
2022/12/13 05:50:31;;;;;;;1.60;1.50;;;;;;;;;;6287867;28;20300;-79
2022/12/13 05:53:36;;;;;;;1.50;1.50;;;;;;;;;;6269307;28;20283;-79
2022/12/13 05:56:47;;;;;;;1.47;1.47;;;;;;;;;;6271066;28;20271;-80
2022/12/13 05:59:52;;;;;;;1.50;1.50;;;;;;;;;;6288121;28;20294;-80
2022/12/13 06:02:57;;;;;;;4.13;1.87;;;;;;;;;;6290376;28;20271;-80
2022/12/13 06:06:08;;;;;;;1.33;1.33;;;;;;;;;;6246376;28;20311;-79
2022/12/13 06:09:13;;;;;;;1.60;1.60;;;;;;;;;;6266941;28;20293;-80
2022/12/13 06:12:27;;;;;;;1.70;1.50;;;;;;;;;;6267518;28;20433;-79
2022/12/13 06:19:08;;;;;;;1.33;1.30;;;;;;;;;;6248789;28;20299;-81
2022/12/13 06:22:13;;;;;;;1.30;1.30;;;;;;;;;;6251178;28;20269;-80
2022/12/13 06:25:20;;;;;;;1.17;1.17;;;;;;;;;;6267792;28;20307;-79
2022/12/13 06:28:40;;;;;;;1.10;1.10;;;;;;;;;;6231631;28;20472;-80
2022/12/13 06:31:47;;;;;;;1.47;1.47;;;;;;;;;;6246229;28;20307;-81
2022/12/13 06:34:52;;;;;;;1.50;1.50;;;;;;;;;;6262021;28;20291;-81
2022/12/13 06:38:00;;;;;;;1.10;1.10;;;;;;;;;;6262834;28;20291;-81
2022/12/13 06:41:18;;;;;;;1.40;1.40;;;;;;;;;;6261821;28;20328;-84
2022/12/13 06:44:28;;;;;;;1.50;1.40;;;;;;;;;;6261572;28;20299;-80
2022/12/13 06:47:33;;;;;;;1.60;1.50;;;;;;;;;;6244717;28;20292;-81
2022/12/13 06:50:39;;;;;;;1.50;1.50;;;;;;;;;;6261253;28;20295;-81
2022/12/13 06:53:48;;;;;;;1.37;1.37;;;;;;;;;;6261982;28;20286;-82
2022/12/13 06:56:53;;;;;;;3.97;1.80;;;;;;;;;;6262032;28;20272;-82
2022/12/13 07:00:08;;;;;;;1.27;1.27;;;;;;;;;;6243556;28;20300;-81
2022/12/13 07:03:16;;;;;;;1.10;1.10;;;;;;;;;;6262001;28;20293;-81
2022/12/13 07:06:22;;;;;;;1.70;1.70;;;;;;;;;;6262960;28;20295;-81
2022/12/13 07:09:31;;;;;;;0.97;0.97;;;;;;;;;;6269235;28;20302;-80
2022/12/13 07:12:45;;;;;;;1.23;1.23;;;;;;;;;;6244400;28;20263;-81
2022/12/13 07:15:55;;;;;;;1.50;1.50;;;;;;;;;;6261118;28;20300;-80
2022/12/13 07:19:05;;;;;;;1.60;1.50;;;;;;;;;;6228118;28;20299;-81
2022/12/13 07:22:28;;;;;;;2.20;2.00;;;;;;;;;;6260053;28;20280;-81
2022/12/13 07:25:38;;;;;;;1.30;1.30;;;;;;;;;;6259495;28;20307;-81
2022/12/13 07:28:43;;;;;;;1.57;1.57;;;;;;;;;;6260748;28;20299;-81
2022/12/13 07:31:49;;;;;;;2.20;1.60;;;;;;;;;;6243821;28;20575;-80
2022/12/13 07:34:55;;;;;;;1.60;1.60;;;;;;;;;;6260617;28;20306;-79
2022/12/13 07:38:00;;;;;;;1.50;1.50;;;;;;;;;;6261574;28;20296;-80
2022/12/13 07:41:06;;;;;;;2.73;1.77;;;;;;;;;;6260571;28;20303;-75
2022/12/13 07:44:12;;;;;;;1.60;1.50;;;;;;;;;;6243236;28;20479;-79
2022/12/13 07:47:18;;;;;;;1.93;1.80;;;;;;;;;;6261595;28;20275;-79
2022/12/13 07:50:27;;;;;;;1.50;1.40;;;;;;;;;;6259573;28;20304;-80
2022/12/13 07:53:43;;;;;;;3.53;1.00;;;;;;;;;;6243454;28;20296;-80
2022/12/13 07:56:50;;;;;;;1.53;1.53;;;;;;;;;;6261967;28;20291;-80
2022/12/13 07:59:55;;;;;;;1.70;1.60;;;;;;;;;;6247172;28;20391;-79
2022/12/13 08:03:02;;;;;;;1.43;1.33;;;;;;;;;;6264565;28;20278;-79
2022/12/13 08:06:09;;;;;;;1.20;1.20;;;;;;;;;;6259139;28;20307;-79
2022/12/13 08:09:14;;;;;;;1.83;1.27;;;;;;;;;;6260424;28;20292;-82
2022/12/13 08:12:19;;;;;;;1.47;1.40;;;;;;;;;;6271841;28;20344;-80
2022/12/13 08:15:26;;;;;;;1.40;1.40;;;;;;;;;;6284595;28;20290;-80
2022/12/13 08:18:33;;;;;;;1.37;1.30;;;;;;;;;;6284641;28;20576;-80
2022/12/13 08:21:41;;;;;;;1.73;1.70;;;;;;;;;;6267214;28;20275;-81
2022/12/13 08:24:58;;;;;;;2.00;1.50;;;;;;;;;;6284734;28;20615;-81
2022/12/13 08:28:04;;;;;;;1.67;1.67;;;;;;;;;;6285397;28;20568;-81
2022/12/13 08:31:13;;;;;;;1.33;1.33;;;;;;;;;;6267847;28;20294;-80
2022/12/13 08:34:19;;;;;;;1.70;1.70;;;;;;;;;;6267083;28;20302;-81
2022/12/13 08:37:25;;;;;;;1.57;1.57;;;;;;;;;;6284772;28;20270;-80
2022/12/13 08:40:30;;;;;;;4.53;1.80;;;;;;;;;;6266509;28;20309;-80
2022/12/13 08:43:35;;;;;;;2.47;2.10;;;;;;;;;;6284003;28;20297;-80
2022/12/13 08:46:40;;;;;;;2.07;2.07;;;;;;;;;;6284682;28;20286;-80
2022/12/13 08:49:48;;;;;;;2.13;2.03;;;;;;;;;;6284049;28;20378;-79
2022/12/13 08:52:54;;;;;;;3.53;2.30;;;;;;;;;;6284821;28;20559;-79
2022/12/13 08:56:03;;;;;;;1.70;1.60;;;;;;;;;;6266171;28;20345;-80
2022/12/13 08:59:09;;;;;;;2.60;1.70;;;;;;;;;;6249624;28;20298;-80
2022/12/13 09:02:17;;;;;;;1.63;1.63;;;;;;;;;;6261078;28;20278;-80
2022/12/13 09:05:23;;;;;;;4.63;1.40;;;;;;;;;;6283540;28;20311;-79
2022/12/13 09:08:39;;;;;;;2.00;2.00;;;;;;;;;;6270814;28;20322;-80
2022/12/13 09:11:44;;;;;;;1.63;1.63;;;;;;;;;;6271969;28;20275;-80
2022/12/13 09:14:50;;;;;;;2.77;1.90;;;;;;;;;;6271323;28;20313;-80
2022/12/13 09:17:56;;;;;;;1.67;1.67;;;;;;;;;;6289443;28;20273;-80
2022/12/13 09:21:12;;;;;;;2.00;2.00;;;;;;;;;;6273859;28;20324;-79
2022/12/13 09:24:27;;;;;;;2.47;2.37;;;;;;;;;;6270732;28;20305;-80
2022/12/13 09:27:40;;;;;;;3.63;1.63;;;;;;;;;;6288742;28;20574;-79
2022/12/13 09:30:45;;;;;;;1.50;1.50;;;;;;;;;;6271004;28;20298;-79
2022/12/13 09:33:53;;;;;;;2.77;2.60;;;;;;;;;;6288415;28;20297;-79
2022/12/13 09:37:01;;;;;;;1.83;1.83;;;;;;;;;;6288568;28;20283;-79
2022/12/13 09:40:08;;;;;;;1.50;1.50;;;;;;;;;;6254098;28;20306;-79
2022/12/13 09:43:31;;;;;;;1.60;1.60;;;;;;;;;;6288742;28;20270;-79
2022/12/13 09:46:47;;;;;;;2.13;2.03;;;;;;;;;;6270993;28;20282;-79
2022/12/13 09:49:52;;;;;;;1.97;1.87;;;;;;;;;;6287837;28;20298;-79
2022/12/13 09:53:00;;;;;;;1.53;1.53;;;;;;;;;;6270624;28;20453;-79
2022/12/13 09:56:07;;;;;;;2.53;1.70;;;;;;;;;;6288141;28;20577;-79
2022/12/13 09:59:23;;;;;;;1.43;1.40;;;;;;;;;;6270860;28;20590;-80
2022/12/13 10:02:30;;;;;;;4.00;3.70;;;;;;;;;;6288430;28;20270;-80
2022/12/13 10:05:37;;;;;;;2.00;2.00;;;;;;;;;;6287725;28;20624;-80
2022/12/13 10:08:48;;;;;;;1.83;1.73;;;;;;;;;;6287591;28;20294;-79
2022/12/13 10:12:01;;;;;;;1.63;1.63;;;;;;;;;;6287858;28;20572;-79
2022/12/13 10:15:07;;;;;;;1.60;1.60;;;;;;;;;;6287460;28;20310;-79
2022/12/13 10:18:17;;;;;;;1.73;1.73;;;;;;;;;;6286960;28;20532;-79
2022/12/13 10:21:28;;;;;;;1.70;1.60;;;;;;;;;;6286885;28;20262;-80
2022/12/13 10:28:09;;;;;;;2.30;2.07;;;;;;;;;;6357306;27;20525;-79
2022/12/13 10:31:19;;;;;;;1.80;1.80;;;;;;;;;;6307179;27;20304;-79
2022/12/13 10:34:27;;;;;;;2.30;2.20;;;;;;;;;;6306509;28;20296;-80
2022/12/13 10:37:32;;;;;;;1.90;1.90;;;;;;;;;;6306833;28;20444;-79
2022/12/13 10:40:42;;;;;;;2.87;2.53;;;;;;;;;;6304550;28;20355;-79
2022/12/13 10:44:21;;;;;;;3.00;2.80;;;;;;;;;;6305621;28;20289;-79
2022/12/13 10:47:26;;;;;;;1.73;1.73;;;;;;;;;;6305240;28;20293;-80
2022/12/13 10:50:32;;;;;;;1.30;1.30;;;;;;;;;;6304702;28;20574;-80
2022/12/13 10:53:39;;;;;;;1.87;1.87;;;;;;;;;;6287783;28;20559;-79
2022/12/13 10:56:58;;;;;;;2.93;1.80;;;;;;;;;;6306029;28;20463;-79
2022/12/13 11:00:32;;;;;;;3.40;2.23;;;;;;;;;;6300995;28;20298;-79
2022/12/13 11:03:37;;;;;;;2.30;2.20;;;;;;;;;;6279114;28;20286;-79
2022/12/13 11:06:45;;;;;;;2.40;2.20;;;;;;;;;;6281016;28;20306;-79
2022/12/13 11:09:50;;;;;;;3.80;3.50;;;;;;;;;;6279123;28;20306;-79
2022/12/13 11:16:27;;;;;;;1.37;1.37;;;;;;;;;;6304930;28;20278;-79
2022/12/13 11:19:36;;;;;;;1.70;1.70;;;;;;;;;;6303416;28;20444;-80
2022/12/13 11:22:42;;;;;;;2.20;2.10;;;;;;;;;;6305493;28;20294;-79
2022/12/13 11:25:55;;;;;;;2.83;2.63;;;;;;;;;;6304196;28;20462;-80
2022/12/13 11:29:17;;;;;;;2.00;1.83;;;;;;;;;;6287765;28;20294;-79
2022/12/13 11:32:32;;;;;;;1.80;1.80;;;;;;;;;;6304951;28;20274;-79
2022/12/13 11:35:48;;;;;;;1.40;1.40;;;;;;;;;;6303585;28;20301;-78
2022/12/13 11:39:04;;;;;;;1.80;1.70;;;;;;;;;;6289378;28;20293;-80
2022/12/13 11:42:15;;;;;;;1.63;1.53;;;;;;;;;;6286747;28;20529;-79
2022/12/13 11:45:24;;;;;;;2.20;2.10;;;;;;;;;;6286256;28;20309;-80
2022/12/13 11:48:37;;;;;;;2.53;2.00;;;;;;;;;;6287772;28;20298;-80
2022/12/13 11:51:45;;;;;;;1.63;1.63;;;;;;;;;;6287039;28;20299;-80
2022/12/13 11:54:54;;;;;;;1.97;1.90;;;;;;;;;;6287583;28;20299;-80
2022/12/13 11:58:04;;;;;;;1.50;1.50;;;;;;;;;;6288364;28;20535;-79
2022/12/13 12:01:14;;;;;;;1.67;1.67;;;;;;;;;;6286529;28;20302;-78
2022/12/13 12:04:27;;;;;;;1.80;1.70;;;;;;;;;;6285893;28;20302;-79
2022/12/13 12:07:41;;;;;;;1.80;1.80;;;;;;;;;;6287554;28;20314;-79
2022/12/13 12:11:12;;;;;;;2.40;1.70;;;;;;;;;;6287139;28;20294;-79
2022/12/13 12:14:22;;;;;;;1.70;1.70;;;;;;;;;;6285450;28;20316;-79
2022/12/13 12:17:28;;;;;;;1.83;1.83;;;;;;;;;;6287873;28;20275;-78
2022/12/13 12:20:52;;;;;;;1.77;1.70;;;;;;;;;;6285846;28;20314;-78
2022/12/13 12:24:08;;;;;;;2.10;2.10;;;;;;;;;;6286767;28;20293;-78
2022/12/13 12:27:23;;;;;;;1.13;1.13;;;;;;;;;;6286045;28;20305;-78
2022/12/13 12:30:37;;;;;;;4.33;2.00;;;;;;;;;;6286476;28;20297;-78
2022/12/13 12:33:50;;;;;;;1.17;1.17;;;;;;;;;;6286459;28;20469;-79
2022/12/13 12:37:08;;;;;;;1.87;1.57;;;;;;;;;;6290488;28;20333;-78
2022/12/13 12:40:43;;;;;;;1.63;1.63;;;;;;;;;;6285501;28;20305;-77
2022/12/13 12:44:18;;;;;;;1.60;1.60;;;;;;;;;;6286118;28;20488;-79
2022/12/13 12:47:30;;;;;;;1.50;1.50;;;;;;;;;;6285436;28;20282;-80
2022/12/13 12:50:59;;;;;;;1.73;1.63;;;;;;;;;;6285445;28;20297;-80
2022/12/13 12:54:19;;;;;;;1.80;1.80;;;;;;;;;;6285233;28;20306;-79
2022/12/13 12:57:31;;;;;;;1.30;1.30;;;;;;;;;;6286715;28;20276;-79
2022/12/13 13:00:43;;;;;;;1.40;1.33;;;;;;;;;;6284223;28;20298;-80
2022/12/13 13:03:51;;;;;;;1.33;1.33;;;;;;;;;;6284341;28;20284;-79
2022/12/13 13:07:10;;;;;;;5.40;2.50;;;;;;;;;;6286393;28;20293;-77
2022/12/13 13:10:29;;;;;;;3.43;3.23;;;;;;;;;;6283853;28;20461;-77
2022/12/13 13:13:44;;;;;;;3.17;2.73;;;;;;;;;;6267776;28;20432;-76
2022/12/13 13:16:50;;;;;;;1.83;1.83;;;;;;;;;;6285955;28;20554;-81
2022/12/13 13:20:16;;;;;;;2.07;2.07;;;;;;;;;;6285257;28;20301;-76
2022/12/13 13:23:21;;;;;;;1.40;1.40;;;;;;;;;;6285164;28;20275;-75
2022/12/13 13:26:47;;;;;;;1.80;1.80;;;;;;;;;;6286013;28;20298;-83
2022/12/13 13:29:52;;;;;;;2.43;1.40;;;;;;;;;;6285415;28;20397;-75
2022/12/13 13:32:58;;;;;;;1.60;1.60;;;;;;;;;;6284283;28;20278;-78
2022/12/13 13:36:04;;;;;;;1.73;1.73;;;;;;;;;;6285381;28;20602;-78
2022/12/13 13:39:15;;;;;;;1.67;1.57;;;;;;;;;;6284063;28;20292;-76
2022/12/13 13:42:23;;;;;;;1.70;1.70;;;;;;;;;;6285555;28;20270;-79
2022/12/13 13:45:28;;;;;;;1.43;1.43;;;;;;;;;;6285587;28;20292;-81
2022/12/13 13:48:56;;;;;;;1.60;1.50;;;;;;;;;;6283801;28;20290;-79
2022/12/13 13:52:18;;;;;;;1.17;1.17;;;;;;;;;;6285769;28;20267;-80
2022/12/13 13:55:49;;;;;;;2.20;2.10;;;;;;;;;;6283448;28;20470;-77
2022/12/13 13:59:26;;;;;;;1.17;1.17;;;;;;;;;;6284553;28;20299;-82
2022/12/13 14:03:09;;;;;;;2.00;1.90;;;;;;;;;;6276006;28;20274;-84
2022/12/13 14:07:08;;;;;;;1.80;1.70;;;;;;;;;;6284408;28;20570;-77
2022/12/13 14:10:21;;;;;;;1.50;1.50;;;;;;;;;;6261855;28;20294;-79
2022/12/13 14:14:18;;;;;;;1.53;1.53;;;;;;;;;;6284215;28;20278;-75
2022/12/13 14:18:05;;;;;;;1.80;1.80;;;;;;;;;;6283260;28;20269;-79
2022/12/13 14:21:23;;;;;;;1.57;1.57;;;;;;;;;;6283372;28;20297;-79
2022/12/13 14:24:41;;;;;;;1.70;1.70;;;;;;;;;;6285014;28;20483;-81
2022/12/13 14:27:50;;;;;;;1.73;1.63;;;;;;;;;;6284591;28;20309;-79
2022/12/13 14:30:55;;;;;;;4.87;1.40;;;;;;;;;;6284426;28;20594;-81
2022/12/13 14:34:03;;;;;;;1.87;1.77;;;;;;;;;;6284953;28;20291;-81
2022/12/13 14:37:22;;;;;;;1.70;1.70;;;;;;;;;;6285592;28;20329;-79
2022/12/13 14:40:31;;;;;;;1.77;1.67;;;;;;;;;;6284918;28;20301;-79
2022/12/13 14:43:36;;;;;;;1.57;1.53;;;;;;;;;;6283117;28;20416;-78
2022/12/13 14:46:49;;;;;;;3.60;3.40;;;;;;;;;;6284146;28;20571;-79
2022/12/13 14:49:56;;;;;;;1.67;1.67;;;;;;;;;;6285011;28;20489;-79
2022/12/13 14:53:03;;;;;;;1.80;1.80;;;;;;;;;;6285700;28;20269;-79
2022/12/13 14:56:11;;;;;;;2.00;1.90;;;;;;;;;;6285347;28;20298;-78
2022/12/13 14:59:33;;;;;;;3.57;2.00;;;;;;;;;;6284701;28;20577;-79
2022/12/13 15:02:38;;;;;;;1.47;1.47;;;;;;;;;;6285908;28;20272;-80
2022/12/13 15:05:45;;;;;;;1.93;1.93;;;;;;;;;;6267573;28;20403;-79
2022/12/13 15:08:56;;;;;;;2.27;2.27;;;;;;;;;;6285371;28;20312;-79
2022/12/13 15:12:01;;;;;;;1.63;1.63;;;;;;;;;;6285231;28;20274;-78
2022/12/13 15:15:30;;;;;;;1.53;1.53;;;;;;;;;;6288284;28;20314;-79
2022/12/13 15:18:35;;;;;;;1.90;1.80;;;;;;;;;;6289423;28;20277;-79
2022/12/13 15:21:55;;;;;;;1.47;1.47;;;;;;;;;;6289777;28;20329;-78
2022/12/13 15:25:16;;;;;;;2.27;2.20;;;;;;;;;;6287862;28;20474;-79
2022/12/13 15:28:27;;;;;;;2.30;2.30;;;;;;;;;;6288782;28;20295;-80
2022/12/13 15:31:33;;;;;;;2.07;1.97;;;;;;;;;;6287900;28;20546;-79
2022/12/13 15:34:38;;;;;;;1.63;1.63;;;;;;;;;;6288919;28;20293;-80
2022/12/13 15:37:46;;;;;;;1.87;1.87;;;;;;;;;;6289462;28;20273;-79
2022/12/13 15:40:53;;;;;;;1.70;1.70;;;;;;;;;;6287385;28;20305;-79
2022/12/13 15:44:00;;;;;;;3.20;3.00;;;;;;;;;;6288269;28;20298;-81
2022/12/13 15:47:19;;;;;;;2.20;2.00;;;;;;;;;;6288428;28;20273;-80
2022/12/13 15:50:34;;;;;;;1.80;1.80;;;;;;;;;;6286619;28;20482;-80
2022/12/13 15:53:40;;;;;;;5.13;2.37;;;;;;;;;;6288079;28;20289;-79
2022/12/13 15:57:00;;;;;;;1.83;1.83;;;;;;;;;;6289444;28;20264;-78
2022/12/13 16:00:15;;;;;;;2.10;2.00;;;;;;;;;;6287901;28;20297;-80
2022/12/13 16:03:23;;;;;;;1.83;1.83;;;;;;;;;;6289504;28;20269;-79
2022/12/13 16:06:29;;;;;;;2.33;2.23;;;;;;;;;;6288213;28;20558;-79
2022/12/13 16:09:37;;;;;;;2.10;2.00;;;;;;;;;;6289070;28;20302;-79
2022/12/13 16:12:46;;;;;;;1.70;1.70;;;;;;;;;;6288228;28;20263;-78
2022/12/13 16:15:53;;;;;;;1.97;1.90;;;;;;;;;;6270673;28;20300;-80
2022/12/13 16:19:15;;;;;;;1.80;1.80;;;;;;;;;;6286002;28;20313;-79
2022/12/13 16:22:24;;;;;;;1.97;1.97;;;;;;;;;;6287671;28;20272;-79
2022/12/13 16:25:31;;;;;;;3.70;1.80;;;;;;;;;;6285261;28;20297;-79
2022/12/13 16:28:38;;;;;;;1.93;1.83;;;;;;;;;;6286821;28;22133;-80
2022/12/13 16:31:48;;;;;;;2.00;1.90;;;;;;;;;;6269799;28;20276;-80
2022/12/13 16:34:54;;;;;;;2.43;1.90;;;;;;;;;;6285497;28;20297;-79
2022/12/13 16:37:59;;;;;;;1.87;1.77;;;;;;;;;;6287056;28;20265;-78
2022/12/13 16:41:14;;;;;;;1.70;1.70;;;;;;;;;;6287183;28;20308;-82
2022/12/13 16:44:23;;;;;;;1.80;1.80;;;;;;;;;;6287458;28;20294;-79
2022/12/13 16:47:31;;;;;;;2.63;2.13;;;;;;;;;;6287578;28;20272;-79
2022/12/13 16:50:52;;;;;;;1.97;1.97;;;;;;;;;;6290921;28;20307;-79
2022/12/13 16:54:03;;;;;;;1.90;1.90;;;;;;;;;;6298351;28;20281;-78
2022/12/13 16:57:08;;;;;;;2.10;2.00;;;;;;;;;;6299847;28;20229;-80
2022/12/13 17:00:16;;;;;;;1.73;1.73;;;;;;;;;;6298824;28;20257;-78
2022/12/13 17:03:23;;;;;;;2.33;2.23;;;;;;;;;;6281488;28;20282;-79
2022/12/13 17:06:29;;;;;;;1.70;1.70;;;;;;;;;;6299990;28;20232;-78
2022/12/13 17:09:38;;;;;;;2.00;2.00;;;;;;;;;;6293904;28;20304;-78
2022/12/13 17:12:44;;;;;;;2.10;2.10;;;;;;;;;;6285781;28;20290;-79
2022/12/13 17:15:51;;;;;;;2.13;1.90;;;;;;;;;;6286462;28;20590;-79
2022/12/13 17:19:04;;;;;;;2.07;2.07;;;;;;;;;;6286127;28;20298;-78
2022/12/13 17:22:11;;;;;;;1.80;1.80;;;;;;;;;;6286971;28;20272;-77
2022/12/13 17:25:16;;;;;;;1.63;1.63;;;;;;;;;;6285505;28;20297;-78
2022/12/13 17:28:20;;;;;;;1.67;1.67;;;;;;;;;;6284087;28;20273;-78
2022/12/13 17:31:27;;;;;;;1.97;1.87;;;;;;;;;;6284874;28;20293;-79
2022/12/13 17:34:39;;;;;;;1.80;1.80;;;;;;;;;;6285310;28;20289;-78
2022/12/13 17:37:44;;;;;;;1.63;1.63;;;;;;;;;;6284666;28;20274;-80
2022/12/13 17:40:54;;;;;;;1.90;1.80;;;;;;;;;;6284408;28;20578;-78
2022/12/13 17:44:00;;;;;;;3.43;1.60;;;;;;;;;;6284869;28;20578;-78
2022/12/13 17:47:07;;;;;;;1.70;1.70;;;;;;;;;;6286213;28;20266;-78
2022/12/13 17:50:14;;;;;;;2.07;1.97;;;;;;;;;;6285155;28;20306;-80
2022/12/13 17:53:19;;;;;;;1.87;1.87;;;;;;;;;;6285076;28;20274;-78
2022/12/13 17:56:24;;;;;;;2.00;2.00;;;;;;;;;;6286007;28;20274;-79
2022/12/13 17:59:29;;;;;;;2.30;2.20;;;;;;;;;;6283865;28;20305;-78
2022/12/13 18:02:36;;;;;;;1.80;1.80;;;;;;;;;;6285404;28;20270;-80
2022/12/13 18:05:43;;;;;;;1.90;1.90;;;;;;;;;;6285112;28;20428;-78
2022/12/13 18:08:48;;;;;;;2.00;2.00;;;;;;;;;;6283382;28;20296;-81
2022/12/13 18:11:53;;;;;;;3.17;2.50;;;;;;;;;;6284981;28;20385;-78
2022/12/13 18:14:58;;;;;;;2.87;2.77;;;;;;;;;;6283299;28;20328;-78
2022/12/13 18:18:08;;;;;;;3.50;3.37;;;;;;;;;;6284189;28;20437;-77
2022/12/13 18:21:17;;;;;;;2.03;2.03;;;;;;;;;;6285447;28;20309;-79
2022/12/13 18:24:22;;;;;;;2.00;2.00;;;;;;;;;;6284662;28;20298;-79
2022/12/13 18:27:27;;;;;;;1.90;1.80;;;;;;;;;;6285754;28;20297;-78
2022/12/13 18:30:33;;;;;;;2.00;1.90;;;;;;;;;;6267404;28;20470;-78
2022/12/13 18:33:40;;;;;;;1.90;1.90;;;;;;;;;;6284653;28;20309;-79
2022/12/13 18:36:51;;;;;;;2.57;1.90;;;;;;;;;;6283997;28;20275;-80
2022/12/13 18:40:06;;;;;;;1.87;1.77;;;;;;;;;;6284485;28;20310;-78
2022/12/13 18:43:14;;;;;;;1.77;1.77;;;;;;;;;;6287775;28;20261;-79
2022/12/13 18:46:22;;;;;;;1.60;1.60;;;;;;;;;;6313041;28;20273;-80
2022/12/13 18:49:31;;;;;;;1.83;1.83;;;;;;;;;;6313675;28;20305;-80
2022/12/13 18:52:45;;;;;;;2.43;2.10;;;;;;;;;;6315863;28;20289;-78
2022/12/13 18:56:06;;;;;;;2.33;2.30;;;;;;;;;;6315372;28;20300;-82
2022/12/13 18:59:23;;;;;;;2.77;2.67;;;;;;;;;;6305656;28;20301;-80
2022/12/13 19:02:30;;;;;;;1.90;1.80;;;;;;;;;;6288502;28;20273;-82
2022/12/13 19:05:40;;;;;;;2.20;2.10;;;;;;;;;;6288145;28;20302;-80
2022/12/13 19:08:55;;;;;;;1.90;1.90;;;;;;;;;;6287860;28;20330;-81
2022/12/13 19:12:06;;;;;;;2.20;2.10;;;;;;;;;;6289975;28;20291;-81
2022/12/13 19:15:22;;;;;;;2.43;2.00;;;;;;;;;;6288525;28;20307;-80
2022/12/13 19:18:45;;;;;;;2.27;2.03;;;;;;;;;;6287859;28;20293;-80